Time;durP1;ratioP1;P1;durP2;ratioP2;P2;SDS_P1;SDS_P2;PMS_P1;PMS_P2;Temp;Humidity;BMP_temperature;BMP_pressure;BME280_temperature;BME280_humidity;BME280_pressure;Samples;Min_cycle;Max_cycle;Signal;HPM_P1;HPM_P2
2022/01/30 00:00:41;;;;;;;;;;;4.80;99.90;;;;;;5127102;27;19911;-75
2022/01/30 00:03:07;;;;;;;;;;;4.80;99.90;;;;;;5132950;27;20316;-77
2022/01/30 00:05:34;;;;;;;;;;;4.90;99.90;;;;;;5131715;27;19912;-75
2022/01/30 00:08:00;;;;;;;;;;;4.80;99.90;;;;;;5130463;27;20373;-74
2022/01/30 00:10:26;;;;;;;;;;;4.80;99.90;;;;;;5122221;27;19996;-76
2022/01/30 00:12:57;;;;;;;;;;;4.70;99.90;;;;;;5123219;27;19911;-73
2022/01/30 00:15:49;;;;;;;;;;;4.60;99.90;;;;;;5133122;27;19907;-75
2022/01/30 00:18:44;;;;;;;;;;;4.60;99.90;;;;;;5124490;27;20010;-75
2022/01/30 00:21:30;;;;;;;;;;;4.50;99.90;;;;;;5133856;27;19912;-75
2022/01/30 00:23:53;;;;;;;;;;;4.60;99.90;;;;;;5127048;27;19915;-74
2022/01/30 00:26:20;;;;;;;;;;;4.50;99.90;;;;;;5130227;27;19908;-74
2022/01/30 00:28:45;;;;;;;;;;;4.50;99.90;;;;;;5127458;27;20369;-74
2022/01/30 00:31:13;;;;;;;;;;;4.50;99.90;;;;;;5137190;27;19908;-73
2022/01/30 00:33:39;;;;;;;;;;;4.50;99.90;;;;;;5133140;27;19975;-74
2022/01/30 00:36:04;;;;;;;;;;;4.40;99.90;;;;;;5116882;28;19939;-74
2022/01/30 00:38:31;;;;;;;;;;;4.50;99.90;;;;;;5117925;27;19908;-73
2022/01/30 00:40:56;;;;;;;;;;;4.50;99.90;;;;;;5122360;27;19985;-75
2022/01/30 00:43:22;;;;;;;;;;;4.40;99.90;;;;;;5121867;27;19919;-75
2022/01/30 00:45:47;;;;;;;;;;;4.40;99.90;;;;;;5130630;27;19956;-75
2022/01/30 00:48:13;;;;;;;;;;;4.30;99.90;;;;;;5121675;27;19918;-73
2022/01/30 00:50:39;;;;;;;;;;;4.30;99.90;;;;;;5131613;27;19907;-73
2022/01/30 00:53:04;;;;;;;;;;;4.20;99.90;;;;;;5129115;27;20288;-73
2022/01/30 00:55:30;;;;;;;;;;;4.20;99.90;;;;;;5122042;27;19911;-74
2022/01/30 00:57:56;;;;;;;;;;;4.30;99.90;;;;;;5122265;27;19911;-75
2022/01/30 01:00:23;;;;;;;;;;;4.40;99.90;;;;;;5121842;27;20001;-74
2022/01/30 01:02:48;;;;;;;;;;;4.40;99.90;;;;;;5131046;27;20373;-72
2022/01/30 01:05:14;;;;;;;;;;;4.40;99.90;;;;;;5131866;27;19912;-75
2022/01/30 01:07:48;;;;;;;;;;;4.40;99.90;;;;;;5131162;27;19923;-73
2022/01/30 01:24:33;;;;;;;;;;;4.30;99.90;;;;;;5106852;28;19991;-74
2022/01/30 01:27:07;;;;;;;;;;;4.30;99.90;;;;;;5126416;27;20100;-77
2022/01/30 01:29:33;;;;;;;;;;;4.40;99.90;;;;;;5130845;28;19919;-73
2022/01/30 01:31:59;;;;;;;;;;;4.40;99.90;;;;;;5119778;28;19912;-74
2022/01/30 01:36:57;;;;;;;;;;;4.40;99.90;;;;;;5127629;28;19915;-73
2022/01/30 01:39:23;;;;;;;;;;;4.40;99.90;;;;;;5123755;27;19923;-74
2022/01/30 01:41:49;;;;;;;;;;;4.30;99.90;;;;;;5123615;28;19912;-74
2022/01/30 01:44:15;;;;;;;;;;;4.20;99.90;;;;;;5129637;27;19978;-73
2022/01/30 01:46:42;;;;;;;;;;;4.10;99.90;;;;;;5128556;28;19912;-73
2022/01/30 01:49:13;;;;;;;;;;;4.00;99.90;;;;;;5129722;27;19919;-72
2022/01/30 01:51:46;;;;;;;;;;;4.00;99.90;;;;;;5122108;27;19920;-73
2022/01/30 01:54:12;;;;;;;;;;;3.90;99.90;;;;;;5122611;27;19918;-75
2022/01/30 01:56:38;;;;;;;;;;;3.90;99.90;;;;;;5133209;27;20373;-74
2022/01/30 01:59:03;;;;;;;;;;;3.90;99.90;;;;;;5131835;27;19923;-75
2022/01/30 02:01:29;;;;;;;;;;;3.90;99.90;;;;;;5129783;27;20009;-73
2022/01/30 02:03:55;;;;;;;;;;;4.00;99.90;;;;;;5130207;27;19927;-73
2022/01/30 02:06:22;;;;;;;;;;;4.00;99.90;;;;;;5124176;27;19924;-73
2022/01/30 02:08:58;;;;;;;;;;;4.00;99.90;;;;;;5131938;27;19923;-72
2022/01/30 02:14:32;;;;;;;;;;;4.00;99.90;;;;;;5131362;27;19916;-73
2022/01/30 02:27:42;;;;;;;;;;;4.00;99.90;;;;;;5133851;27;19919;-73
2022/01/30 02:30:09;;;;;;;;;;;4.00;99.90;;;;;;5134195;27;19908;-72
2022/01/30 02:32:34;;;;;;;;;;;4.10;99.90;;;;;;5120078;27;20014;-72
2022/01/30 02:35:00;;;;;;;;;;;4.10;99.90;;;;;;5131399;27;20517;-72
2022/01/30 02:37:26;;;;;;;;;;;4.20;99.90;;;;;;5129489;27;19955;-73
2022/01/30 02:39:51;;;;;;;;;;;4.30;99.90;;;;;;5132383;27;20364;-73
2022/01/30 02:42:20;;;;;;;;;;;4.50;99.90;;;;;;5131025;27;19934;-74
2022/01/30 02:44:53;;;;;;;;;;;4.50;99.90;;;;;;5126925;27;20002;-74
2022/01/30 02:50:14;;;;;;;;;;;4.40;99.90;;;;;;5122163;27;20287;-73
2022/01/30 02:52:43;;;;;;;;;;;4.50;99.90;;;;;;5129807;27;19911;-73
2022/01/30 02:55:09;;;;;;;;;;;4.40;99.90;;;;;;5133272;27;19911;-74
2022/01/30 02:57:35;;;;;;;;;;;4.40;99.90;;;;;;5125847;27;19935;-74
2022/01/30 03:00:01;;;;;;;;;;;4.30;99.90;;;;;;5130196;27;19915;-73
2022/01/30 03:02:26;;;;;;;;;;;4.20;99.90;;;;;;5121004;27;20373;-74
2022/01/30 03:04:52;;;;;;;;;;;4.30;99.90;;;;;;5133769;27;20304;-73
2022/01/30 03:07:17;;;;;;;;;;;4.30;99.90;;;;;;5126723;27;19919;-72
2022/01/30 03:09:43;;;;;;;;;;;4.20;99.90;;;;;;5131398;27;19912;-74
2022/01/30 03:12:09;;;;;;;;;;;4.20;99.90;;;;;;5127513;27;20371;-73
2022/01/30 03:14:34;;;;;;;;;;;4.30;99.90;;;;;;5133317;27;19946;-74
2022/01/30 03:17:00;;;;;;;;;;;4.30;99.90;;;;;;5121171;27;19951;-73
2022/01/30 03:19:25;;;;;;;;;;;4.40;99.90;;;;;;5130403;27;19923;-72
2022/01/30 03:21:51;;;;;;;;;;;4.40;99.90;;;;;;5126181;27;20416;-72
2022/01/30 03:24:17;;;;;;;;;;;4.20;99.90;;;;;;5127340;27;19912;-72
2022/01/30 03:26:42;;;;;;;;;;;4.20;99.90;;;;;;5125397;27;19954;-72
2022/01/30 03:29:08;;;;;;;;;;;4.10;99.90;;;;;;5130618;27;19907;-73
2022/01/30 03:31:35;;;;;;;;;;;4.10;99.90;;;;;;5119901;27;20415;-72
2022/01/30 03:34:01;;;;;;;;;;;4.10;99.90;;;;;;5127116;27;19998;-74
2022/01/30 03:36:27;;;;;;;;;;;4.10;99.90;;;;;;5122991;27;20015;-73
2022/01/30 03:38:52;;;;;;;;;;;4.00;99.90;;;;;;5124762;27;19911;-76
2022/01/30 03:41:18;;;;;;;;;;;4.10;99.90;;;;;;5118106;27;19912;-72
2022/01/30 03:43:43;;;;;;;;;;;4.10;99.90;;;;;;5131775;27;19912;-73
2022/01/30 03:46:09;;;;;;;;;;;4.00;99.90;;;;;;5121819;27;19916;-75
2022/01/30 03:48:35;;;;;;;;;;;3.90;99.90;;;;;;5129806;27;20324;-75
2022/01/30 03:51:00;;;;;;;;;;;3.90;99.90;;;;;;5128805;27;19907;-73
2022/01/30 03:53:26;;;;;;;;;;;4.00;99.90;;;;;;5127001;27;20105;-74
2022/01/30 03:55:51;;;;;;;;;;;4.00;99.90;;;;;;5115573;27;20261;-75
2022/01/30 03:58:19;;;;;;;;;;;4.00;99.90;;;;;;5126707;27;20014;-74
2022/01/30 04:00:45;;;;;;;;;;;4.10;99.90;;;;;;5125244;27;19928;-73
2022/01/30 04:03:11;;;;;;;;;;;4.20;99.90;;;;;;5128838;27;19930;-73
2022/01/30 04:05:36;;;;;;;;;;;4.20;99.90;;;;;;5124343;27;20361;-73
2022/01/30 04:08:02;;;;;;;;;;;4.30;99.90;;;;;;5130991;27;19907;-74
2022/01/30 04:10:29;;;;;;;;;;;4.20;99.90;;;;;;5124438;27;19911;-74
2022/01/30 04:12:54;;;;;;;;;;;4.20;99.90;;;;;;5121607;27;20010;-73
2022/01/30 04:15:20;;;;;;;;;;;4.20;99.90;;;;;;5130018;27;20008;-72
2022/01/30 04:17:46;;;;;;;;;;;4.30;99.90;;;;;;5130485;27;19907;-71
2022/01/30 04:20:11;;;;;;;;;;;4.20;99.90;;;;;;5123917;27;19916;-72
2022/01/30 04:22:37;;;;;;;;;;;4.20;99.90;;;;;;5129876;27;19998;-72
2022/01/30 04:25:03;;;;;;;;;;;4.20;99.90;;;;;;5128859;27;20362;-73
2022/01/30 04:27:28;;;;;;;;;;;4.20;99.90;;;;;;5124157;27;19980;-74
2022/01/30 04:29:54;;;;;;;;;;;4.20;99.90;;;;;;5130945;27;20002;-72
2022/01/30 04:32:20;;;;;;;;;;;4.00;99.90;;;;;;5128150;27;20002;-72
2022/01/30 04:34:53;;;;;;;;;;;4.10;99.90;;;;;;5124939;27;19919;-73
2022/01/30 04:37:27;;;;;;;;;;;4.00;99.90;;;;;;5130755;27;19911;-75
2022/01/30 05:04:19;;;;;;;;;;;3.80;99.90;;;;;;5122561;27;20377;-73
2022/01/30 05:09:20;;;;;;;;;;;3.90;99.90;;;;;;5123600;27;19912;-73
2022/01/30 05:11:45;;;;;;;;;;;3.80;99.90;;;;;;5124749;27;19912;-73
2022/01/30 05:14:13;;;;;;;;;;;3.80;99.90;;;;;;5128847;27;19954;-74
2022/01/30 05:16:39;;;;;;;;;;;3.70;99.90;;;;;;5130895;27;20463;-73
2022/01/30 05:19:05;;;;;;;;;;;3.80;99.90;;;;;;5123074;27;20027;-72
2022/01/30 05:21:30;;;;;;;;;;;3.80;99.90;;;;;;5125474;27;19911;-72
2022/01/30 05:23:56;;;;;;;;;;;3.80;99.90;;;;;;5127234;27;20360;-72
2022/01/30 05:26:24;;;;;;;;;;;3.80;99.90;;;;;;5126006;27;19911;-73
2022/01/30 05:28:50;;;;;;;;;;;3.80;99.90;;;;;;5137012;27;19914;-73
2022/01/30 05:31:15;;;;;;;;;;;3.90;99.90;;;;;;5128711;27;20433;-74
2022/01/30 05:33:41;;;;;;;;;;;4.00;99.90;;;;;;5133187;27;19912;-74
2022/01/30 05:36:07;;;;;;;;;;;3.90;99.90;;;;;;5130491;27;19919;-73
2022/01/30 05:38:32;;;;;;;;;;;3.90;99.90;;;;;;5135117;27;20488;-73
2022/01/30 05:40:58;;;;;;;;;;;4.00;99.90;;;;;;5132933;27;19969;-73
2022/01/30 05:43:27;;;;;;;;;;;3.90;99.90;;;;;;5131492;27;19920;-73
2022/01/30 05:46:00;;;;;;;;;;;3.90;99.90;;;;;;5132624;27;20271;-74
2022/01/30 05:48:26;;;;;;;;;;;3.80;99.90;;;;;;5128887;27;19911;-73
2022/01/30 05:50:51;;;;;;;;;;;3.80;99.90;;;;;;5131146;27;19918;-74
2022/01/30 05:53:17;;;;;;;;;;;3.80;99.90;;;;;;5135924;27;19907;-76
2022/01/30 05:55:42;;;;;;;;;;;3.70;99.90;;;;;;5126594;27;19936;-74
2022/01/30 05:58:09;;;;;;;;;;;3.80;99.90;;;;;;5128925;27;20392;-73
2022/01/30 06:00:35;;;;;;;;;;;3.70;99.90;;;;;;5131048;27;19920;-73
2022/01/30 06:03:00;;;;;;;;;;;3.70;99.90;;;;;;5128700;27;20361;-74
2022/01/30 06:05:26;;;;;;;;;;;3.70;99.90;;;;;;5130646;27;19920;-74
2022/01/30 06:07:54;;;;;;;;;;;4.00;99.90;;;;;;5137718;27;20307;-76
2022/01/30 06:10:24;;;;;;;;;;;3.90;99.90;;;;;;5132255;27;20530;-72
2022/01/30 06:12:49;;;;;;;;;;;3.90;99.90;;;;;;5134098;27;19951;-73
2022/01/30 06:15:15;;;;;;;;;;;3.80;99.90;;;;;;5131359;27;20004;-73
2022/01/30 06:17:43;;;;;;;;;;;3.70;99.90;;;;;;5126709;27;20308;-74
2022/01/30 06:20:09;;;;;;;;;;;3.80;99.90;;;;;;5126963;27;20281;-73
2022/01/30 06:22:35;;;;;;;;;;;3.80;99.90;;;;;;5128948;27;19956;-73
2022/01/30 06:25:01;;;;;;;;;;;3.90;99.90;;;;;;5136809;27;19924;-74
2022/01/30 06:27:26;;;;;;;;;;;3.80;99.90;;;;;;5136278;27;19951;-73
2022/01/30 06:29:52;;;;;;;;;;;3.90;99.90;;;;;;5131211;27;19907;-72
2022/01/30 06:32:17;;;;;;;;;;;3.90;99.90;;;;;;5124985;27;20384;-72
2022/01/30 06:34:43;;;;;;;;;;;3.90;99.90;;;;;;5130447;27;20002;-74
2022/01/30 06:37:09;;;;;;;;;;;3.90;99.90;;;;;;5131897;27;20742;-74
2022/01/30 06:39:34;;;;;;;;;;;3.80;99.90;;;;;;5132554;27;19915;-73
2022/01/30 06:42:00;;;;;;;;;;;3.80;99.90;;;;;;5126866;27;19911;-73
2022/01/30 06:44:25;;;;;;;;;;;3.80;99.90;;;;;;5124677;27;20327;-72
2022/01/30 06:46:51;;;;;;;;;;;3.70;99.90;;;;;;5132211;27;19919;-75
2022/01/30 06:49:16;;;;;;;;;;;3.70;99.90;;;;;;5130990;27;19907;-74
2022/01/30 06:51:42;;;;;;;;;;;3.60;99.90;;;;;;5128549;27;20304;-74
2022/01/30 06:54:08;;;;;;;;;;;3.60;99.90;;;;;;5134654;27;20006;-75
2022/01/30 06:56:33;;;;;;;;;;;3.70;99.90;;;;;;5123183;27;20260;-75
2022/01/30 06:58:59;;;;;;;;;;;3.80;99.90;;;;;;5119508;27;19919;-73
2022/01/30 07:01:25;;;;;;;;;;;3.80;99.90;;;;;;5128982;27;19915;-75
2022/01/30 07:03:52;;;;;;;;;;;3.70;99.90;;;;;;5127849;27;20379;-74
2022/01/30 07:06:17;;;;;;;;;;;3.70;99.90;;;;;;5132513;27;19941;-73
2022/01/30 07:08:43;;;;;;;;;;;3.80;99.90;;;;;;5125763;27;19916;-74
2022/01/30 07:11:09;;;;;;;;;;;3.90;99.90;;;;;;5126725;27;20380;-72
2022/01/30 07:13:34;;;;;;;;;;;4.00;99.90;;;;;;5133709;27;19911;-74
2022/01/30 07:16:00;;;;;;;;;;;4.10;99.90;;;;;;5128583;27;19918;-74
2022/01/30 07:18:25;;;;;;;;;;;4.10;99.90;;;;;;5119158;27;20367;-74
2022/01/30 07:20:51;;;;;;;;;;;4.20;99.90;;;;;;5134504;27;20403;-73
2022/01/30 07:23:17;;;;;;;;;;;4.30;99.90;;;;;;5134960;27;19908;-74
2022/01/30 07:25:44;;;;;;;;;;;4.30;99.90;;;;;;5126104;27;19966;-74
2022/01/30 07:28:09;;;;;;;;;;;4.30;99.90;;;;;;5134086;27;19915;-75
2022/01/30 07:30:36;;;;;;;;;;;4.40;99.90;;;;;;5132123;27;19912;-74
2022/01/30 07:33:05;;;;;;;;;;;4.40;99.90;;;;;;5137485;27;20346;-74
2022/01/30 07:35:33;;;;;;;;;;;4.60;99.90;;;;;;5130210;27;19915;-75
2022/01/30 07:37:58;;;;;;;;;;;4.80;99.90;;;;;;5122310;27;20277;-74
2022/01/30 07:40:24;;;;;;;;;;;5.00;99.90;;;;;;5128013;27;19919;-73
2022/01/30 07:42:50;;;;;;;;;;;5.10;99.90;;;;;;5131604;27;19978;-73
2022/01/30 07:45:15;;;;;;;;;;;5.10;99.90;;;;;;5130782;27;19916;-75
2022/01/30 07:47:41;;;;;;;;;;;5.10;99.90;;;;;;5132860;27;19908;-76
2022/01/30 07:50:07;;;;;;;;;;;5.20;99.90;;;;;;5129622;27;19911;-73
2022/01/30 07:52:33;;;;;;;;;;;5.30;99.90;;;;;;5126663;27;19956;-74
2022/01/30 07:54:58;;;;;;;;;;;5.40;99.90;;;;;;5130669;27;19908;-76
2022/01/30 07:57:24;;;;;;;;;;;5.50;99.90;;;;;;5122202;27;20317;-73
2022/01/30 07:59:49;;;;;;;;;;;5.60;99.90;;;;;;5130257;27;20015;-74
2022/01/30 08:02:15;;;;;;;;;;;5.70;99.90;;;;;;5130318;27;19912;-74
2022/01/30 08:04:40;;;;;;;;;;;5.90;99.90;;;;;;5126645;27;19933;-72
2022/01/30 08:07:06;;;;;;;;;;;6.10;99.90;;;;;;5126701;27;20420;-73
2022/01/30 08:09:32;;;;;;;;;;;6.20;99.90;;;;;;5130049;27;19912;-76
2022/01/30 08:11:58;;;;;;;;;;;6.40;99.90;;;;;;5129547;27;19912;-73
2022/01/30 08:14:23;;;;;;;;;;;6.60;99.90;;;;;;5127832;27;20006;-74
2022/01/30 08:16:49;;;;;;;;;;;6.80;99.90;;;;;;5125073;27;19941;-74
2022/01/30 08:19:15;;;;;;;;;;;6.80;99.90;;;;;;5127411;27;20417;-75
2022/01/30 08:21:41;;;;;;;;;;;6.90;99.90;;;;;;5122817;27;19908;-76
2022/01/30 08:24:07;;;;;;;;;;;7.10;99.90;;;;;;5131043;27;20152;-73
2022/01/30 08:26:32;;;;;;;;;;;7.20;99.90;;;;;;5122553;27;19908;-75
2022/01/30 08:28:58;;;;;;;;;;;7.20;99.90;;;;;;5127781;27;20006;-74
2022/01/30 08:31:23;;;;;;;;;;;7.20;99.90;;;;;;5125509;27;19914;-74
2022/01/30 08:33:49;;;;;;;;;;;7.30;99.90;;;;;;5126345;27;19927;-75
2022/01/30 08:36:15;;;;;;;;;;;7.40;99.90;;;;;;5128064;27;20549;-74
2022/01/30 08:38:40;;;;;;;;;;;7.30;99.90;;;;;;5125642;27;19951;-73
2022/01/30 08:41:06;;;;;;;;;;;7.40;99.90;;;;;;5127440;27;19911;-73
2022/01/30 08:43:32;;;;;;;;;;;7.40;99.90;;;;;;5132659;27;19912;-73
2022/01/30 08:45:59;;;;;;;;;;;7.50;99.90;;;;;;5126912;27;19908;-73
2022/01/30 08:48:25;;;;;;;;;;;7.50;99.90;;;;;;5126418;27;20353;-73
2022/01/30 08:50:51;;;;;;;;;;;7.50;99.90;;;;;;5125606;27;19908;-74
2022/01/30 08:53:16;;;;;;;;;;;7.60;99.90;;;;;;5130510;27;19934;-76
2022/01/30 08:55:42;;;;;;;;;;;7.60;99.90;;;;;;5126592;27;19961;-75
2022/01/30 08:58:08;;;;;;;;;;;7.70;99.90;;;;;;5127797;27;20319;-74
2022/01/30 09:00:35;;;;;;;;;;;7.90;99.90;;;;;;5129093;27;19919;-76
2022/01/30 09:03:02;;;;;;;;;;;8.00;99.90;;;;;;5124138;27;19907;-77
2022/01/30 09:05:28;;;;;;;;;;;8.10;99.90;;;;;;5127714;27;19911;-77
2022/01/30 09:07:53;;;;;;;;;;;8.20;99.90;;;;;;5124288;27;19914;-75
2022/01/30 09:10:19;;;;;;;;;;;8.20;99.90;;;;;;5132097;27;19908;-76
2022/01/30 09:12:44;;;;;;;;;;;8.40;99.90;;;;;;5126203;27;20260;-73
2022/01/30 09:15:13;;;;;;;;;;;8.50;99.90;;;;;;5117203;27;19912;-74
2022/01/30 09:17:40;;;;;;;;;;;8.60;99.90;;;;;;5131524;27;19980;-75
2022/01/30 09:20:06;;;;;;;;;;;8.70;99.90;;;;;;5132882;27;19912;-76
2022/01/30 09:22:31;;;;;;;;;;;8.70;99.90;;;;;;5127208;27;19912;-74
2022/01/30 09:24:57;;;;;;;;;;;8.80;99.90;;;;;;5112068;28;20313;-76
2022/01/30 09:27:23;;;;;;;;;;;8.90;99.90;;;;;;5130594;28;19975;-75
2022/01/30 09:29:48;;;;;;;;;;;9.00;99.90;;;;;;5126956;28;19911;-77
2022/01/30 09:32:14;;;;;;;;;;;9.00;99.90;;;;;;5132060;28;19915;-74
2022/01/30 09:34:40;;;;;;;;;;;9.10;99.90;;;;;;5122259;28;19908;-75
2022/01/30 09:37:06;;;;;;;;;;;9.20;99.90;;;;;;5110175;27;19911;-75
2022/01/30 09:39:32;;;;;;;;;;;9.20;99.90;;;;;;5128056;28;19919;-73
2022/01/30 09:41:58;;;;;;;;;;;9.30;99.90;;;;;;5124090;28;19911;-72
2022/01/30 09:44:23;;;;;;;;;;;9.40;99.90;;;;;;5127053;28;19918;-74
2022/01/30 09:46:50;;;;;;;;;;;9.40;99.90;;;;;;5130768;28;19907;-76
2022/01/30 09:49:16;;;;;;;;;;;9.40;99.90;;;;;;5126214;28;19911;-75
2022/01/30 09:51:44;;;;;;;;;;;9.50;99.90;;;;;;5118877;27;20015;-75
2022/01/30 09:54:11;;;;;;;;;;;9.50;99.90;;;;;;5129337;28;19907;-75
2022/01/30 09:56:36;;;;;;;;;;;9.60;99.90;;;;;;5123591;28;20310;-75
2022/01/30 09:59:02;;;;;;;;;;;9.70;99.90;;;;;;5125900;28;19915;-75
2022/01/30 10:01:33;;;;;;;;;;;9.80;99.90;;;;;;5131311;28;19991;-73
2022/01/30 10:03:59;;;;;;;;;;;9.90;99.90;;;;;;5132333;28;19908;-74
2022/01/30 10:06:30;;;;;;;;;;;9.90;99.90;;;;;;5114690;28;19926;-73
2022/01/30 10:08:57;;;;;;;;;;;9.90;99.90;;;;;;5131311;28;19911;-77
2022/01/30 10:11:34;;;;;;;;;;;9.90;99.90;;;;;;5130346;27;19960;-74
2022/01/30 10:14:07;;;;;;;;;;;9.90;99.90;;;;;;5134017;27;20337;-74
2022/01/30 10:16:45;;;;;;;;;;;10.00;99.90;;;;;;5130087;27;20373;-74
2022/01/30 10:19:21;;;;;;;;;;;10.10;99.90;;;;;;5122000;27;19976;-77
2022/01/30 10:21:48;;;;;;;;;;;10.20;99.90;;;;;;5137046;27;19910;-76
2022/01/30 10:24:25;;;;;;;;;;;10.20;99.90;;;;;;5132865;27;19982;-75
2022/01/30 10:26:51;;;;;;;;;;;10.30;99.90;;;;;;5131925;27;19934;-75
2022/01/30 10:29:21;;;;;;;;;;;10.40;99.90;;;;;;5130492;27;19979;-74
2022/01/30 10:31:56;;;;;;;;;;;10.40;99.90;;;;;;5124666;27;19918;-75
2022/01/30 10:34:22;;;;;;;;;;;10.50;99.90;;;;;;5135126;27;20430;-74
2022/01/30 10:36:48;;;;;;;;;;;10.60;99.90;;;;;;5133142;27;19915;-75
2022/01/30 10:39:17;;;;;;;;;;;10.60;99.90;;;;;;5135691;27;20025;-75
2022/01/30 10:41:53;;;;;;;;;;;10.70;99.90;;;;;;5134390;27;19911;-75
2022/01/30 10:44:19;;;;;;;;;;;10.70;99.90;;;;;;5130256;27;20412;-75
2022/01/30 10:46:46;;;;;;;;;;;10.70;99.90;;;;;;5134616;27;20357;-77
2022/01/30 10:49:13;;;;;;;;;;;10.70;99.90;;;;;;5133401;27;19998;-74
2022/01/30 10:51:39;;;;;;;;;;;10.70;99.90;;;;;;5133149;27;19907;-75
2022/01/30 10:54:06;;;;;;;;;;;10.70;99.90;;;;;;5126013;27;20060;-74
2022/01/30 10:56:31;;;;;;;;;;;10.70;99.90;;;;;;5123881;27;19912;-74
2022/01/30 10:59:03;;;;;;;;;;;10.70;99.90;;;;;;5131278;27;20377;-71
2022/01/30 11:01:29;;;;;;;;;;;10.70;99.90;;;;;;5118914;27;19915;-72
2022/01/30 11:03:55;;;;;;;;;;;10.80;99.90;;;;;;5131201;27;20386;-71
2022/01/30 11:06:21;;;;;;;;;;;10.80;99.90;;;;;;5131548;27;20068;-68
2022/01/30 11:08:50;;;;;;;;;;;10.70;99.90;;;;;;5131044;27;19950;-70
2022/01/30 11:14:00;;;;;;;;;;;10.70;99.90;;;;;;5134335;27;19916;-69
2022/01/30 11:19:12;;;;;;;;;;;10.60;99.90;;;;;;5125529;27;20016;-60
2022/01/30 11:21:38;;;;;;;;;;;11.00;99.90;;;;;;5131345;27;19935;-61
2022/01/30 11:24:04;;;;;;;;;;;11.40;99.90;;;;;;5131706;27;19911;-63
2022/01/30 11:26:30;;;;;;;;;;;11.50;99.90;;;;;;5127955;27;19914;-61
2022/01/30 11:28:56;;;;;;;;;;;11.40;99.90;;;;;;5123691;27;20388;-62
2022/01/30 11:31:23;;;;;;;;;;;11.60;99.90;;;;;;5129517;27;19968;-64
2022/01/30 11:33:50;;;;;;;;;;;11.50;99.90;;;;;;5125894;27;19912;-62
2022/01/30 11:36:16;;;;;;;;;;;11.60;99.90;;;;;;5119685;27;19998;-61
2022/01/30 11:38:42;;;;;;;;;;;11.70;99.90;;;;;;5129778;27;19912;-64
2022/01/30 11:41:10;;;;;;;;;;;11.70;99.90;;;;;;5127884;27;20010;-62
2022/01/30 11:43:36;;;;;;;;;;;11.50;99.90;;;;;;5125745;27;19912;-64
2022/01/30 11:46:15;;;;;;;;;;;11.50;99.90;;;;;;5130981;27;20276;-61
2022/01/30 11:48:41;;;;;;;;;;;11.60;99.90;;;;;;5130582;27;19912;-64
2022/01/30 11:51:07;;;;;;;;;;;11.60;99.90;;;;;;5123710;27;19966;-72
2022/01/30 11:53:33;;;;;;;;;;;11.30;99.90;;;;;;5128195;27;20277;-69
2022/01/30 11:56:00;;;;;;;;;;;10.90;99.90;;;;;;5131740;27;19939;-69
2022/01/30 11:58:33;;;;;;;;;;;10.60;99.90;;;;;;5119146;27;19911;-70
2022/01/30 12:00:58;;;;;;;;;;;10.50;99.90;;;;;;5131473;27;19911;-70
2022/01/30 12:03:28;;;;;;;;;;;10.40;99.90;;;;;;5119355;27;19938;-70
2022/01/30 12:05:54;;;;;;;;;;;10.50;99.90;;;;;;5128556;27;20292;-68
2022/01/30 12:08:38;;;;;;;;;;;10.50;99.90;;;;;;5131005;27;19918;-69
2022/01/30 12:11:04;;;;;;;;;;;10.50;99.90;;;;;;5121688;27;19911;-70
2022/01/30 12:13:42;;;;;;;;;;;10.40;99.90;;;;;;5131073;27;20185;-68
2022/01/30 12:16:28;;;;;;;;;;;10.40;99.90;;;;;;5111205;27;20022;-69
2022/01/30 12:18:53;;;;;;;;;;;10.50;99.90;;;;;;5131338;27;19919;-68
2022/01/30 12:21:19;;;;;;;;;;;10.40;99.90;;;;;;5122119;27;19916;-69
2022/01/30 12:23:45;;;;;;;;;;;10.30;99.90;;;;;;5123359;27;19970;-69
2022/01/30 12:26:15;;;;;;;;;;;10.30;99.90;;;;;;5126109;27;20288;-69
2022/01/30 12:28:42;;;;;;;;;;;10.20;99.90;;;;;;5132668;27;19912;-73
2022/01/30 12:31:23;;;;;;;;;;;10.20;99.90;;;;;;5131344;27;19915;-69
2022/01/30 12:33:56;;;;;;;;;;;10.20;99.90;;;;;;5116696;27;19911;-70
2022/01/30 12:36:22;;;;;;;;;;;10.20;99.90;;;;;;5111973;27;19931;-69
2022/01/30 12:38:52;;;;;;;;;;;10.30;99.90;;;;;;5128733;27;20099;-69
2022/01/30 12:41:19;;;;;;;;;;;10.40;99.90;;;;;;5132105;27;19915;-70
2022/01/30 12:43:45;;;;;;;;;;;10.30;99.90;;;;;;5123327;27;19922;-68
2022/01/30 12:46:12;;;;;;;;;;;10.20;99.90;;;;;;5128846;27;20373;-67
2022/01/30 12:48:38;;;;;;;;;;;10.20;99.90;;;;;;5115598;27;19912;-68
2022/01/30 12:51:07;;;;;;;;;;;10.30;99.90;;;;;;5127386;27;20419;-68
2022/01/30 12:53:36;;;;;;;;;;;10.30;99.90;;;;;;5130051;27;20361;-69
2022/01/30 12:56:02;;;;;;;;;;;10.30;99.90;;;;;;5131293;27;19935;-69
2022/01/30 12:58:34;;;;;;;;;;;10.30;99.90;;;;;;5127331;27;19912;-69
2022/01/30 13:01:11;;;;;;;;;;;10.30;99.90;;;;;;5123424;27;19938;-68
2022/01/30 13:03:37;;;;;;;;;;;10.20;99.90;;;;;;5129315;27;19912;-66
2022/01/30 13:06:02;;;;;;;;;;;10.30;99.90;;;;;;5129516;27;19943;-67
2022/01/30 13:09:03;;;;;;;;;;;10.30;99.90;;;;;;5129710;27;20008;-69
2022/01/30 13:11:29;;;;;;;;;;;10.30;99.90;;;;;;5065170;28;19958;-69
2022/01/30 13:13:59;;;;;;;;;;;10.50;99.90;;;;;;5117324;27;20280;-67
2022/01/30 13:16:26;;;;;;;;;;;10.40;99.90;;;;;;5124808;27;19995;-69
2022/01/30 13:18:51;;;;;;;;;;;10.30;99.90;;;;;;5132279;27;19960;-70
2022/01/30 13:21:22;;;;;;;;;;;10.30;99.90;;;;;;5125670;27;20038;-70
2022/01/30 13:23:47;;;;;;;;;;;10.30;99.90;;;;;;5131112;27;19915;-68
2022/01/30 13:26:26;;;;;;;;;;;10.20;99.90;;;;;;5116350;28;20000;-69
2022/01/30 13:28:52;;;;;;;;;;;10.30;99.90;;;;;;5124826;27;20300;-70
2022/01/30 13:31:17;;;;;;;;;;;10.10;99.90;;;;;;5115084;28;19912;-69
2022/01/30 13:33:43;;;;;;;;;;;10.10;99.90;;;;;;5129429;27;20432;-68
2022/01/30 13:36:21;;;;;;;;;;;10.00;99.90;;;;;;5123471;28;20327;-68
2022/01/30 13:38:47;;;;;;;;;;;10.00;99.90;;;;;;5126831;28;19911;-68
2022/01/30 13:41:25;;;;;;;;;;;10.00;99.90;;;;;;5122732;28;19939;-70
2022/01/30 13:43:58;;;;;;;;;;;9.80;99.90;;;;;;5127371;27;19912;-68
2022/01/30 13:49:12;;;;;;;;;;;9.70;99.90;;;;;;5129497;27;20270;-68
2022/01/30 13:51:37;;;;;;;;;;;9.70;99.90;;;;;;5124250;27;19912;-69
2022/01/30 13:54:10;;;;;;;;;;;9.70;99.90;;;;;;5131584;27;19947;-67
2022/01/30 13:56:36;;;;;;;;;;;9.70;99.90;;;;;;5134638;27;19926;-68
2022/01/30 13:59:02;;;;;;;;;;;9.70;99.90;;;;;;5120358;27;19911;-68
2022/01/30 14:01:31;;;;;;;;;;;9.60;99.90;;;;;;5116972;27;19948;-69
2022/01/30 14:04:03;;;;;;;;;;;9.60;99.90;;;;;;5132427;27;20365;-68
2022/01/30 14:06:32;;;;;;;;;;;9.60;99.90;;;;;;5119897;27;19924;-69
2022/01/30 14:09:00;;;;;;;;;;;9.60;99.90;;;;;;5121642;27;20317;-70
2022/01/30 14:11:27;;;;;;;;;;;9.60;99.90;;;;;;5138571;27;19919;-70
2022/01/30 14:13:58;;;;;;;;;;;9.70;99.90;;;;;;5121374;27;20410;-69
2022/01/30 14:16:33;;;;;;;;;;;9.70;99.90;;;;;;5127466;27;19920;-69
2022/01/30 14:18:59;;;;;;;;;;;9.60;99.90;;;;;;5123105;27;20006;-68
2022/01/30 14:21:28;;;;;;;;;;;9.60;99.90;;;;;;5132457;27;19950;-67
2022/01/30 14:23:53;;;;;;;;;;;9.60;99.90;;;;;;5116287;27;20014;-69
2022/01/30 14:26:20;;;;;;;;;;;9.80;99.90;;;;;;5134478;27;19950;-68
2022/01/30 14:28:46;;;;;;;;;;;9.80;99.90;;;;;;5130389;27;19919;-69
2022/01/30 14:31:19;;;;;;;;;;;9.70;99.90;;;;;;5132313;27;20308;-68
2022/01/30 14:33:44;;;;;;;;;;;9.60;99.90;;;;;;5114324;27;20407;-67
2022/01/30 14:36:10;;;;;;;;;;;9.60;99.90;;;;;;5132358;27;19957;-70
2022/01/30 14:38:42;;;;;;;;;;;9.50;99.90;;;;;;5133125;27;20419;-68
2022/01/30 14:41:08;;;;;;;;;;;9.50;99.90;;;;;;5134157;27;20346;-68
2022/01/30 14:43:33;;;;;;;;;;;9.60;99.90;;;;;;5125641;27;20288;-68
2022/01/30 14:45:59;;;;;;;;;;;9.60;99.90;;;;;;5130793;27;19961;-69
2022/01/30 14:48:24;;;;;;;;;;;9.60;99.90;;;;;;5134107;27;19964;-70
2022/01/30 14:50:50;;;;;;;;;;;9.60;99.90;;;;;;5125838;27;20445;-69
2022/01/30 14:53:16;;;;;;;;;;;9.60;99.90;;;;;;5132786;27;19927;-69
2022/01/30 14:55:42;;;;;;;;;;;9.60;99.90;;;;;;5133328;27;19912;-69
2022/01/30 14:58:09;;;;;;;;;;;9.60;99.90;;;;;;5131796;27;20273;-67
2022/01/30 15:00:35;;;;;;;;;;;9.70;99.90;;;;;;5134405;27;20441;-70
2022/01/30 15:03:01;;;;;;;;;;;9.60;99.90;;;;;;5128858;27;19912;-69
2022/01/30 15:05:27;;;;;;;;;;;9.60;99.90;;;;;;5124429;27;19986;-68
2022/01/30 15:07:52;;;;;;;;;;;9.70;99.90;;;;;;5129182;27;19912;-67
2022/01/30 15:10:18;;;;;;;;;;;9.60;99.90;;;;;;5113608;27;19919;-67
2022/01/30 15:12:44;;;;;;;;;;;9.60;99.90;;;;;;5130913;27;19933;-69
2022/01/30 15:15:11;;;;;;;;;;;9.60;99.90;;;;;;5121226;27;19919;-69
2022/01/30 15:17:38;;;;;;;;;;;9.60;99.90;;;;;;5118797;27;20017;-67
2022/01/30 15:20:06;;;;;;;;;;;9.50;99.90;;;;;;5132273;27;19968;-68
2022/01/30 15:22:32;;;;;;;;;;;9.50;99.90;;;;;;5129543;27;19911;-70
2022/01/30 15:24:58;;;;;;;;;;;9.50;99.90;;;;;;5123889;27;19994;-68
2022/01/30 15:27:24;;;;;;;;;;;9.40;99.90;;;;;;5129548;27;19911;-68
2022/01/30 15:29:50;;;;;;;;;;;9.50;99.90;;;;;;5125785;27;19934;-72
2022/01/30 15:32:16;;;;;;;;;;;9.60;99.90;;;;;;5126834;27;20282;-72
2022/01/30 15:34:41;;;;;;;;;;;9.50;99.90;;;;;;5133880;27;19914;-68